Language: 


Des rapports , des résumés tant et plus, au choix de chacun....


Données Historiques de Météogheer
Journalier Rapport pour Janvier 30, 2017 Unitée:  Les deux    Impériale   Métrique
Suivant Jour »
Journalier Hebdomadaire Mensuel Annuel Sur mesure
  Max: Min: Moyenne:
Température: 47.7 °F /  8.7 °C 42.3 °F /  5.7 °C 44.8 °F /  7.1 °C
Point de rosée: 46.9 °F /  8.3 °C 41.7 °F /  5.4 °C 44.1 °F /  6.7 °C
Humidité: 98% 97% 97%
Vent: 14.5mph /  23.3km/h - 4mph /  6.4km/h
Rafales: 19.7mph /  31.7km/h - -
Vent- - SW
Pression: 29.9 in /  1013.1 hPa 29.8 in /  1008.0 hPa -
Pluie: 0.1 in /  2.5 mm    
Historical Graphs
 
 
Données tabulaires pour Janvier 30, 2017
Heure Température Point de rosée Pression Vent Vent Rafales Humidité Pluie Taux (Horaire) Conditions
00:03 43.5 °F /  6.4 °C 43.2 °F /  6.2 °C 29.9in /  1011.1hPa SSW 12.3mph /  19.8km/h 14.8mph /  23.8km/h 98% 0.08in /  2.0mm
00:08 43.9 °F /  6.6 °C 43.3 °F /  6.3 °C 29.9in /  1011.1hPa South 10.5mph /  16.9km/h 17.2mph /  27.7km/h 98% 0.08in /  2.0mm
00:13 43.9 °F /  6.6 °C 43.3 °F /  6.3 °C 29.9in /  1011.1hPa SSW 10.5mph /  16.9km/h 17.2mph /  27.7km/h 98% 0.09in /  2.3mm
00:18 43.9 °F /  6.6 °C 43.3 °F /  6.3 °C 29.9in /  1011.1hPa South 10.5mph /  16.9km/h 14.8mph /  23.8km/h 98% 0.09in /  2.3mm
00:23 43.9 °F /  6.6 °C 43.3 °F /  6.3 °C 29.8in /  1010.0hPa SSE 10.5mph /  16.9km/h 14.1mph /  22.7km/h 98% 0.06in /  1.5mm
00:28 44.1 °F /  6.7 °C 43.5 °F /  6.4 °C 29.8in /  1010.0hPa South 8.1mph /  13.0km/h 14.5mph /  23.3km/h 98% 0.06in /  1.5mm
00:33 44.1 °F /  6.7 °C 43.5 °F /  6.4 °C 29.8in /  1010.0hPa SW 6.3mph /  10.1km/h 14.5mph /  23.3km/h 98% 0.06in /  1.5mm
00:38 44.1 °F /  6.7 °C 43.5 °F /  6.4 °C 29.8in /  1010.0hPa SSW 8.5mph /  13.7km/h 17mph /  27.4km/h 98% 0.07in /  1.8mm
00:43 44.1 °F /  6.7 °C 43.5 °F /  6.4 °C 29.8in /  1010.0hPa SSW 8.5mph /  13.7km/h 17mph /  27.4km/h 98% 0.07in /  1.8mm
00:48 44.2 °F /  6.8 °C 43.5 °F /  6.4 °C 29.8in /  1010.0hPa SSW 7.6mph /  12.2km/h 14.3mph /  23.0km/h 98% 0.07in /  1.8mm
00:53 44.2 °F /  6.8 °C 43.9 °F /  6.6 °C 29.8in /  1010.0hPa South 8.7mph /  14.0km/h 17.2mph /  27.7km/h 98% 0.07in /  1.8mm
00:58 44.2 °F /  6.8 °C 43.9 °F /  6.6 °C 29.8in /  1010.0hPa South 10.3mph /  16.6km/h 17.4mph /  28.0km/h 98% 0.07in /  1.8mm
01:03 44.2 °F /  6.8 °C 43.9 °F /  6.6 °C 29.8in /  1010.0hPa SSW 5.6mph /  9.0km/h 17.4mph /  28.0km/h 98% 0.03in /  0.8mm
01:08 44.4 °F /  6.9 °C 44.1 °F /  6.7 °C 29.8in /  1010.0hPa South 6.3mph /  10.1km/h 12.8mph /  20.6km/h 98% 0.03in /  0.8mm
01:13 44.4 °F /  6.9 °C 44.1 °F /  6.7 °C 29.8in /  1010.0hPa SSW 14.5mph /  23.3km/h 14.5mph /  23.3km/h 98% 0.01in /  0.3mm
01:18 44.8 °F /  7.1 °C 44.2 °F /  6.8 °C 29.8in /  1010.0hPa SSW 13.2mph /  21.2km/h 14.5mph /  23.3km/h 98% 0.01in /  0.3mm
01:23 44.8 °F /  7.1 °C 44.2 °F /  6.8 °C 29.8in /  1009.0hPa WSW 11mph /  17.7km/h 14.8mph /  23.8km/h 98% 0.01in /  0.3mm
01:28 44.8 °F /  7.1 °C 44.2 °F /  6.8 °C 29.8in /  1009.0hPa SSW 7.8mph /  12.6km/h 14.8mph /  23.8km/h 98% 0.01in /  0.3mm
01:33 44.8 °F /  7.1 °C 44.2 °F /  6.8 °C 29.8in /  1009.0hPa South 9.8mph /  15.8km/h 13.2mph /  21.2km/h 98% 0in /  0.0mm
01:38 44.8 °F /  7.1 °C 44.2 °F /  6.8 °C 29.8in /  1009.0hPa SSW 11mph /  17.7km/h 15.9mph /  25.6km/h 98% 0in /  0.0mm
01:43 45 °F /  7.2 °C 44.2 °F /  6.8 °C 29.8in /  1009.0hPa South 10.5mph /  16.9km/h 17mph /  27.4km/h 98% 0in /  0.0mm
01:48 45 °F /  7.2 °C 44.2 °F /  6.8 °C 29.8in /  1009.0hPa South 5.8mph /  9.3km/h 19.7mph /  31.7km/h 98% 0in /  0.0mm
01:53 45 °F /  7.2 °C 44.1 °F /  6.7 °C 29.8in /  1009.0hPa South 10.7mph /  17.2km/h 19.7mph /  31.7km/h 97% 0in /  0.0mm
01:58 45 °F /  7.2 °C 44.1 °F /  6.7 °C 29.8in /  1009.0hPa SSW 9.8mph /  15.8km/h 17.4mph /  28.0km/h 97% 0in /  0.0mm
02:03 45 °F /  7.2 °C 44.1 °F /  6.7 °C 29.8in /  1009.0hPa SW 10.5mph /  16.9km/h 15.2mph /  24.5km/h 97% 0in /  0.0mm
02:08 45 °F /  7.2 °C 44.1 °F /  6.7 °C 29.8in /  1009.0hPa SSW 12.3mph /  19.8km/h 15.2mph /  24.5km/h 97% 0in /  0.0mm
02:13 45 °F /  7.2 °C 44.1 °F /  6.7 °C 29.8in /  1009.0hPa SSW 12.8mph /  20.6km/h 15.2mph /  24.5km/h 97% 0in /  0.0mm
02:18 45 °F /  7.2 °C 44.1 °F /  6.7 °C 29.8in /  1009.0hPa West 12.5mph /  20.1km/h 14.8mph /  23.8km/h 97% 0in /  0.0mm
02:23 45 °F /  7.2 °C 44.1 °F /  6.7 °C 29.8in /  1008.0hPa SW 9.4mph /  15.1km/h 15.2mph /  24.5km/h 97% 0in /  0.0mm
02:28 45 °F /  7.2 °C 44.1 °F /  6.7 °C 29.8in /  1008.0hPa SW 13.2mph /  21.2km/h 15.2mph /  24.5km/h 97% 0in /  0.0mm
02:33 45 °F /  7.2 °C 44.1 °F /  6.7 °C 29.8in /  1008.0hPa SSW 10.5mph /  16.9km/h 17mph /  27.4km/h 97% 0in /  0.0mm
02:38 45 °F /  7.2 °C 44.1 °F /  6.7 °C 29.8in /  1008.0hPa SSW 12.8mph /  20.6km/h 17mph /  27.4km/h 97% 0in /  0.0mm
02:43 45 °F /  7.2 °C 44.1 °F /  6.7 °C 29.8in /  1008.0hPa SSW 13mph /  20.9km/h 15.2mph /  24.5km/h 97% 0in /  0.0mm
02:48 45 °F /  7.2 °C 44.1 °F /  6.7 °C 29.8in /  1008.0hPa WSW 10.5mph /  16.9km/h 16.3mph /  26.2km/h 97% 0in /  0.0mm
02:53 45.1 °F /  7.3 °C 44.2 °F /  6.8 °C 29.8in /  1008.0hPa WSW 12.8mph /  20.6km/h 16.3mph /  26.2km/h 97% 0in /  0.0mm
02:58 45.1 °F /  7.3 °C 44.2 °F /  6.8 °C 29.8in /  1008.0hPa SW 11mph /  17.7km/h 15.2mph /  24.5km/h 97% 0in /  0.0mm
03:03 45 °F /  7.2 °C 44.1 °F /  6.7 °C 29.8in /  1008.0hPa SW 6mph /  9.7km/h 14.8mph /  23.8km/h 97% 0in /  0.0mm
03:08 45 °F /  7.2 °C 44.1 °F /  6.7 °C 29.8in /  1009.0hPa WSW 10.3mph /  16.6km/h 15.9mph /  25.6km/h 97% 0in /  0.0mm
03:13 45 °F /  7.2 °C 44.1 °F /  6.7 °C 29.8in /  1009.0hPa WSW 10.1mph /  16.3km/h 15.9mph /  25.6km/h 97% 0in /  0.0mm
03:14 45 °F /  7.2 °C 44.1 °F /  6.7 °C 29.8in /  1009.0hPa SSW 13.2mph /  21.2km/h 15.9mph /  25.6km/h 97% 0in /  0.0mm
03:19 45 °F /  7.2 °C 44.1 °F /  6.7 °C 29.8in /  1009.0hPa SW 8.1mph /  13.0km/h 14.5mph /  23.3km/h 97% 0in /  0.0mm
03:24 45 °F /  7.2 °C 44.1 °F /  6.7 °C 29.8in /  1009.0hPa SSW 10.3mph /  16.6km/h 13.2mph /  21.2km/h 97% 0in /  0.0mm
03:29 45 °F /  7.2 °C 44.1 °F /  6.7 °C 29.8in /  1009.0hPa SSW 8.7mph /  14.0km/h 12.8mph /  20.6km/h 97% 0in /  0.0mm
03:34 45 °F /  7.2 °C 44.1 °F /  6.7 °C 29.8in /  1009.0hPa SSW 10.3mph /  16.6km/h 12.8mph /  20.6km/h 97% 0in /  0.0mm
03:39 45 °F /  7.2 °C 44.1 °F /  6.7 °C 29.8in /  1009.0hPa SSW 8.5mph /  13.7km/h 11.4mph /  18.3km/h 97% 0in /  0.0mm
03:44 45 °F /  7.2 °C 44.1 °F /  6.7 °C 29.8in /  1009.0hPa WSW 6.3mph /  10.1km/h 13mph /  20.9km/h 97% 0in /  0.0mm
03:49 45 °F /  7.2 °C 44.1 °F /  6.7 °C 29.8in /  1009.0hPa SSW 6.5mph /  10.5km/h 15.2mph /  24.5km/h 97% 0in /  0.0mm
03:54 45 °F /  7.2 °C 44.1 °F /  6.7 °C 29.8in /  1009.0hPa SSW 8.1mph /  13.0km/h 15.2mph /  24.5km/h 97% 0in /  0.0mm
03:59 45 °F /  7.2 °C 44.1 °F /  6.7 °C 29.8in /  1009.0hPa SSW 9.8mph /  15.8km/h 13.2mph /  21.2km/h 97% 0in /  0.0mm
04:04 45.1 °F /  7.3 °C 44.2 °F /  6.8 °C 29.8in /  1009.0hPa SW 6.5mph /  10.5km/h 12.5mph /  20.1km/h 97% 0in /  0.0mm
04:09 45.1 °F /  7.3 °C 44.2 °F /  6.8 °C 29.8in /  1009.0hPa SSW 8.5mph /  13.7km/h 11.2mph /  18.0km/h 97% 0in /  0.0mm
04:15 45.1 °F /  7.3 °C 44.2 °F /  6.8 °C 29.8in /  1009.0hPa SSW 10.3mph /  16.6km/h 11.2mph /  18.0km/h 97% 0in /  0.0mm
04:20 45.1 °F /  7.3 °C 44.2 °F /  6.8 °C 29.8in /  1009.0hPa SSW 5.8mph /  9.3km/h 11mph /  17.7km/h 97% 0in /  0.0mm
04:24 45.1 °F /  7.3 °C 44.2 °F /  6.8 °C 29.8in /  1009.0hPa WSW 12.1mph /  19.5km/h 12.3mph /  19.8km/h 97% 0in /  0.0mm
04:25 45.1 °F /  7.3 °C 44.2 °F /  6.8 °C 29.8in /  1009.0hPa SSW 6.5mph /  10.5km/h 12.3mph /  19.8km/h 97% 0in /  0.0mm
04:27 45.1 °F /  7.3 °C 44.2 °F /  6.8 °C 29.8in /  1009.0hPa WSW 6.3mph /  10.1km/h 12.3mph /  19.8km/h 97% 0in /  0.0mm
04:28 45.1 °F /  7.3 °C 44.2 °F /  6.8 °C 29.8in /  1009.0hPa SW 4mph /  6.4km/h 12.3mph /  19.8km/h 97% 0in /  0.0mm
04:32 45.1 °F /  7.3 °C 44.2 °F /  6.8 °C 29.8in /  1009.0hPa SSW 6.5mph /  10.5km/h 12.3mph /  19.8km/h 97% 0in /  0.0mm
04:37 45.1 °F /  7.3 °C 44.2 °F /  6.8 °C 29.8in /  1008.0hPa SW 7.8mph /  12.6km/h 11mph /  17.7km/h 97% 0in /  0.0mm
04:42 45.1 °F /  7.3 °C 44.2 °F /  6.8 °C 29.8in /  1008.0hPa South 6.3mph /  10.1km/h 10.3mph /  16.6km/h 97% 0in /  0.0mm
04:47 45.1 °F /  7.3 °C 44.2 °F /  6.8 °C 29.8in /  1008.0hPa SSW 8.1mph /  13.0km/h 10.1mph /  16.3km/h 97% 0in /  0.0mm
04:52 45.1 °F /  7.3 °C 44.2 °F /  6.8 °C 29.8in /  1008.0hPa SW 5.8mph /  9.3km/h 10.1mph /  16.3km/h 97% 0in /  0.0mm
04:57 45.1 °F /  7.3 °C 44.2 °F /  6.8 °C 29.8in /  1008.0hPa SSW 7.6mph /  12.2km/h 9.8mph /  15.8km/h 97% 0in /  0.0mm
05:02 45.1 °F /  7.3 °C 44.2 °F /  6.8 °C 29.8in /  1008.0hPa South 9.8mph /  15.8km/h 13mph /  20.9km/h 97% 0in /  0.0mm
05:07 45.1 °F /  7.3 °C 44.2 °F /  6.8 °C 29.8in /  1009.0hPa South 7.6mph /  12.2km/h 13mph /  20.9km/h 97% 0in /  0.0mm
05:12 45.1 °F /  7.3 °C 44.2 °F /  6.8 °C 29.8in /  1009.0hPa SSW 6.3mph /  10.1km/h 11mph /  17.7km/h 97% 0in /  0.0mm
05:17 45.1 °F /  7.3 °C 44.2 °F /  6.8 °C 29.8in /  1009.0hPa SSW 7.4mph /  11.9km/h 10.7mph /  17.2km/h 97% 0in /  0.0mm
05:22 45.1 °F /  7.3 °C 44.2 °F /  6.8 °C 29.8in /  1009.0hPa SSW 9.6mph /  15.4km/h 10.7mph /  17.2km/h 97% 0in /  0.0mm
05:27 45.1 °F /  7.3 °C 44.2 °F /  6.8 °C 29.8in /  1009.0hPa SSW 4.9mph /  7.9km/h 10.7mph /  17.2km/h 97% 0in /  0.0mm
05:32 45.1 °F /  7.3 °C 44.2 °F /  6.8 °C 29.8in /  1009.0hPa South 5.8mph /  9.3km/h 10.7mph /  17.2km/h 97% 0in /  0.0mm
05:37 45.1 °F /  7.3 °C 44.2 °F /  6.8 °C 29.8in /  1009.0hPa SW 5.4mph /  8.7km/h 10.3mph /  16.6km/h 97% 0in /  0.0mm
05:42 45.1 °F /  7.3 °C 44.2 °F /  6.8 °C 29.8in /  1009.0hPa SSW 6.5mph /  10.5km/h 10.5mph /  16.9km/h 97% 0in /  0.0mm
05:47 45.1 °F /  7.3 °C 44.2 °F /  6.8 °C 29.8in /  1009.0hPa SW 5.6mph /  9.0km/h 10.5mph /  16.9km/h 97% 0in /  0.0mm
05:52 45.1 °F /  7.3 °C 44.2 °F /  6.8 °C 29.8in /  1009.0hPa SSW 5.6mph /  9.0km/h 8.5mph /  13.7km/h 97% 0in /  0.0mm
05:57 45 °F /  7.2 °C 44.1 °F /  6.7 °C 29.8in /  1009.0hPa SSW 4.9mph /  7.9km/h 8.5mph /  13.7km/h 97% 0in /  0.0mm
06:02 45 °F /  7.2 °C 44.1 °F /  6.7 °C 29.8in /  1009.0hPa South 5.6mph /  9.0km/h 7.2mph /  11.6km/h 97% 0in /  0.0mm
06:07 45 °F /  7.2 °C 44.1 °F /  6.7 °C 29.8in /  1009.0hPa South 2mph /  3.2km/h 5.8mph /  9.3km/h 97% 0in /  0.0mm
06:12 44.8 °F /  7.1 °C 43.9 °F /  6.6 °C 29.8in /  1009.0hPa Calm   6mph /  9.7km/h 97% 0in /  0.0mm
06:17 44.8 °F /  7.1 °C 43.9 °F /  6.6 °C 29.8in /  1009.0hPa SSW 3.8mph /  6.1km/h 8.5mph /  13.7km/h 97% 0in /  0.0mm
06:22 44.8 °F /  7.1 °C 43.9 °F /  6.6 °C 29.8in /  1008.0hPa South 3.8mph /  6.1km/h 8.5mph /  13.7km/h 97% 0in /  0.0mm
06:27 44.4 °F /  6.9 °C 43.7 °F /  6.5 °C 29.8in /  1008.0hPa SW 6.7mph /  10.8km/h 6.7mph /  10.8km/h 97% 0in /  0.0mm
06:32 44.4 °F /  6.9 °C 43.7 °F /  6.5 °C 29.8in /  1008.0hPa SW 3.8mph /  6.1km/h 6.7mph /  10.8km/h 97% 0in /  0.0mm
06:37 44.4 °F /  6.9 °C 43.7 °F /  6.5 °C 29.8in /  1008.0hPa WSW 4.3mph /  6.9km/h 6.5mph /  10.5km/h 97% 0in /  0.0mm
06:42 44.4 °F /  6.9 °C 43.7 °F /  6.5 °C 29.8in /  1008.0hPa SSW 3.8mph /  6.1km/h 6.5mph /  10.5km/h 97% 0in /  0.0mm
06:47 44.4 °F /  6.9 °C 43.7 °F /  6.5 °C 29.8in /  1008.0hPa Calm   5.6mph /  9.0km/h 97% 0in /  0.0mm
06:52 44.4 °F /  6.9 °C 43.7 °F /  6.5 °C 29.8in /  1008.0hPa WSW 5.4mph /  8.7km/h 5.6mph /  9.0km/h 97% 0in /  0.0mm
06:57 44.4 °F /  6.9 °C 43.7 °F /  6.5 °C 29.8in /  1008.0hPa SW 5.4mph /  8.7km/h 7.6mph /  12.2km/h 97% 0in /  0.0mm
07:02 44.8 °F /  7.1 °C 43.9 °F /  6.6 °C 29.8in /  1008.0hPa SW 4.7mph /  7.6km/h 7.6mph /  12.2km/h 97% 0in /  0.0mm
07:07 44.8 °F /  7.1 °C 43.9 °F /  6.6 °C 29.8in /  1008.0hPa South 3.4mph /  5.5km/h 6.5mph /  10.5km/h 97% 0in /  0.0mm
07:12 44.8 °F /  7.1 °C 43.9 °F /  6.6 °C 29.8in /  1008.0hPa SSW 4.9mph /  7.9km/h 6.5mph /  10.5km/h 97% 0in /  0.0mm
07:17 44.8 °F /  7.1 °C 43.9 °F /  6.6 °C 29.8in /  1008.0hPa South 4.3mph /  6.9km/h 6.5mph /  10.5km/h 97% 0in /  0.0mm
07:22 44.8 °F /  7.1 °C 43.9 °F /  6.6 °C 29.8in /  1008.0hPa SW 2.7mph /  4.3km/h 6.3mph /  10.1km/h 97% 0in /  0.0mm
07:27 44.8 °F /  7.1 °C 43.9 °F /  6.6 °C 29.8in /  1008.0hPa SW 3.6mph /  5.8km/h 6.3mph /  10.1km/h 97% 0in /  0.0mm
07:32 44.8 °F /  7.1 °C 43.9 °F /  6.6 °C 29.8in /  1008.0hPa South 5.8mph /  9.3km/h 6.3mph /  10.1km/h 97% 0in /  0.0mm
07:37 44.8 °F /  7.1 °C 43.9 °F /  6.6 °C 29.8in /  1008.0hPa SSW 3.1mph /  5.0km/h 6.3mph /  10.1km/h 97% 0in /  0.0mm
07:42 44.8 °F /  7.1 °C 43.9 °F /  6.6 °C 29.8in /  1008.0hPa SSW 3.4mph /  5.5km/h 6.5mph /  10.5km/h 97% 0in /  0.0mm
07:47 44.8 °F /  7.1 °C 43.9 °F /  6.6 °C 29.8in /  1008.0hPa SSW 4mph /  6.4km/h 6.5mph /  10.5km/h 97% 0in /  0.0mm
07:52 44.8 °F /  7.1 °C 43.9 °F /  6.6 °C 29.8in /  1009.0hPa SW 2.9mph /  4.7km/h 6.5mph /  10.5km/h 97% 0in /  0.0mm
07:57 45 °F /  7.2 °C 44.1 °F /  6.7 °C 29.8in /  1009.0hPa West 6.3mph /  10.1km/h 6.5mph /  10.5km/h 97% 0in /  0.0mm
08:02 45 °F /  7.2 °C 44.1 °F /  6.7 °C 29.8in /  1009.0hPa SW 4.7mph /  7.6km/h 6.5mph /  10.5km/h 97% 0in /  0.0mm
08:07 45 °F /  7.2 °C 44.1 °F /  6.7 °C 29.8in /  1009.0hPa WSW 5.4mph /  8.7km/h 8.5mph /  13.7km/h 97% 0.01in /  0.3mm
08:12 45 °F /  7.2 °C 44.1 °F /  6.7 °C 29.8in /  1009.0hPa WSW 6.3mph /  10.1km/h 8.5mph /  13.7km/h 97% 0.01in /  0.3mm
08:17 45 °F /  7.2 °C 44.1 °F /  6.7 °C 29.8in /  1009.0hPa WSW 4.9mph /  7.9km/h 7.4mph /  11.9km/h 97% 0.01in /  0.3mm
08:22 45.1 °F /  7.3 °C 44.2 °F /  6.8 °C 29.8in /  1009.0hPa SW 4.7mph /  7.6km/h 7.4mph /  11.9km/h 97% 0.01in /  0.3mm
08:27 45.1 °F /  7.3 °C 44.2 °F /  6.8 °C 29.8in /  1009.0hPa WSW 4.3mph /  6.9km/h 7.4mph /  11.9km/h 97% 0.01in /  0.3mm
08:32 45.1 °F /  7.3 °C 44.2 °F /  6.8 °C 29.8in /  1009.0hPa SW 4.7mph /  7.6km/h 7.4mph /  11.9km/h 97% 0.01in /  0.3mm
08:37 45.1 °F /  7.3 °C 44.2 °F /  6.8 °C 29.8in /  1009.0hPa SSW 6.3mph /  10.1km/h 8.1mph /  13.0km/h 97% 0.01in /  0.3mm
08:42 45.1 °F /  7.3 °C 44.8 °F /  7.1 °C 29.8in /  1009.0hPa WSW 4mph /  6.4km/h 8.1mph /  13.0km/h 98% 0.01in /  0.3mm
08:47 45.1 °F /  7.3 °C 44.8 °F /  7.1 °C 29.8in /  1009.0hPa SSW 4mph /  6.4km/h 7.6mph /  12.2km/h 98% 0.01in /  0.3mm
08:52 45.1 °F /  7.3 °C 44.8 °F /  7.1 °C 29.8in /  1010.0hPa SW 3.6mph /  5.8km/h 5.8mph /  9.3km/h 98% 0.01in /  0.3mm
08:57 45.3 °F /  7.4 °C 45 °F /  7.2 °C 29.8in /  1010.0hPa WSW 5.6mph /  9.0km/h 6.5mph /  10.5km/h 98% 0.01in /  0.3mm
09:02 45.3 °F /  7.4 °C 45 °F /  7.2 °C 29.8in /  1010.0hPa Calm   6.5mph /  10.5km/h 98% 0.01in /  0.3mm
09:07 45.7 °F /  7.6 °C 45.1 °F /  7.3 °C 29.8in /  1009.0hPa WSW 3.8mph /  6.1km/h 7.2mph /  11.6km/h 98% 0in /  0.0mm
09:12 45.7 °F /  7.6 °C 45.1 °F /  7.3 °C 29.8in /  1009.0hPa SW 3.6mph /  5.8km/h 7.2mph /  11.6km/h 98% 0in /  0.0mm
09:17 45.7 °F /  7.6 °C 45.1 °F /  7.3 °C 29.8in /  1009.0hPa WSW 4.3mph /  6.9km/h 6.9mph /  11.1km/h 98% 0in /  0.0mm
09:22 45.9 °F /  7.7 °C 45.1 °F /  7.3 °C 29.8in /  1009.0hPa SSW 4.9mph /  7.9km/h 6.9mph /  11.1km/h 98% 0in /  0.0mm
09:27 45.9 °F /  7.7 °C 45.1 °F /  7.3 °C 29.8in /  1009.0hPa SW 4.9mph /  7.9km/h 6.5mph /  10.5km/h 98% 0in /  0.0mm
09:32 45.9 °F /  7.7 °C 45.3 °F /  7.4 °C 29.8in /  1009.0hPa SSW 5.8mph /  9.3km/h 7.2mph /  11.6km/h 98% 0in /  0.0mm
09:37 46 °F /  7.8 °C 45.3 °F /  7.4 °C 29.8in /  1008.0hPa SW 6.5mph /  10.5km/h 7.2mph /  11.6km/h 97% 0in /  0.0mm
09:42 46 °F /  7.8 °C 45.3 °F /  7.4 °C 29.8in /  1008.0hPa WSW 8.5mph /  13.7km/h 8.5mph /  13.7km/h 97% 0in /  0.0mm
09:47 46.2 °F /  7.9 °C 45.5 °F /  7.5 °C 29.8in /  1008.0hPa SW 5.4mph /  8.7km/h 8.5mph /  13.7km/h 97% 0in /  0.0mm
09:52 46.2 °F /  7.9 °C 45.5 °F /  7.5 °C 29.8in /  1009.0hPa SW 6.3mph /  10.1km/h 7.8mph /  12.6km/h 97% 0in /  0.0mm
09:57 46.6 °F /  8.1 °C 45.7 °F /  7.6 °C 29.8in /  1009.0hPa WSW 4.9mph /  7.9km/h 7.8mph /  12.6km/h 97% 0in /  0.0mm
10:02 46.6 °F /  8.1 °C 45.7 °F /  7.6 °C 29.8in /  1009.0hPa WSW 4mph /  6.4km/h 7.6mph /  12.2km/h 97% 0in /  0.0mm
10:07 46.6 °F /  8.1 °C 45.7 °F /  7.6 °C 29.8in /  1009.0hPa WSW 4.3mph /  6.9km/h 6.5mph /  10.5km/h 97% 0in /  0.0mm
10:12 46.6 °F /  8.1 °C 45.9 °F /  7.7 °C 29.8in /  1009.0hPa WSW 5.4mph /  8.7km/h 6.5mph /  10.5km/h 97% 0in /  0.0mm
10:17 46.6 °F /  8.1 °C 45.9 °F /  7.7 °C 29.8in /  1009.0hPa WSW 5.8mph /  9.3km/h 8.1mph /  13.0km/h 97% 0in /  0.0mm
10:22 46.8 °F /  8.2 °C 46 °F /  7.8 °C 29.8in /  1009.0hPa West 4.9mph /  7.9km/h 8.1mph /  13.0km/h 97% 0in /  0.0mm
10:27 46.8 °F /  8.2 °C 46 °F /  7.8 °C 29.8in /  1009.0hPa WSW 2.7mph /  4.3km/h 5.8mph /  9.3km/h 97% 0in /  0.0mm
10:32 46.8 °F /  8.2 °C 46 °F /  7.8 °C 29.8in /  1009.0hPa Calm   5.4mph /  8.7km/h 97% 0in /  0.0mm
10:34 46.8 °F /  8.2 °C 46 °F /  7.8 °C 29.8in /  1009.0hPa West 2.5mph /  4.0km/h 4.9mph /  7.9km/h 97% 0in /  0.0mm
10:39 46.9 °F /  8.3 °C 46.2 °F /  7.9 °C 29.8in /  1010.0hPa Calm   3.8mph /  6.1km/h 97% 0in /  0.0mm
10:44 46.9 °F /  8.3 °C 46.2 °F /  7.9 °C 29.8in /  1010.0hPa Calm   3.8mph /  6.1km/h 97% 0in /  0.0mm
10:49 47.1 °F /  8.4 °C 46.4 °F /  8.0 °C 29.8in /  1010.0hPa Calm   3.1mph /  5.0km/h 97% 0in /  0.0mm
10:54 47.3 °F /  8.5 °C 46.6 °F /  8.1 °C 29.8in /  1010.0hPa Calm   3.1mph /  5.0km/h 97% 0in /  0.0mm
10:59 47.3 °F /  8.5 °C 46.6 °F /  8.1 °C 29.8in /  1010.0hPa NNW 5.4mph /  8.7km/h 5.4mph /  8.7km/h 97% 0in /  0.0mm
11:05 47.7 °F /  8.7 °C 46.9 °F /  8.3 °C 29.8in /  1010.0hPa West 2.2mph /  3.5km/h 6.5mph /  10.5km/h 97% 0in /  0.0mm
11:10 47.7 °F /  8.7 °C 46.9 °F /  8.3 °C 29.8in /  1010.0hPa NNE 4.3mph /  6.9km/h 7.2mph /  11.6km/h 97% 0in /  0.0mm
11:15 47.1 °F /  8.4 °C 46.4 °F /  8.0 °C 29.8in /  1010.0hPa Calm   8.7mph /  14.0km/h 97% 0in /  0.0mm
11:20 46.9 °F /  8.3 °C 46.2 °F /  7.9 °C 29.8in /  1010.0hPa WNW 7.2mph /  11.6km/h 8.7mph /  14.0km/h 97% 0in /  0.0mm
11:21 46.9 °F /  8.3 °C 46.2 °F /  7.9 °C 29.8in /  1010.0hPa North 4.3mph /  6.9km/h 8.7mph /  14.0km/h 97% 0in /  0.0mm
11:26 46.8 °F /  8.2 °C 46 °F /  7.8 °C 29.8in /  1010.0hPa NW 5.6mph /  9.0km/h 8.7mph /  14.0km/h 97% 0in /  0.0mm
11:31 46.8 °F /  8.2 °C 46 °F /  7.8 °C 29.8in /  1010.0hPa Calm   8.7mph /  14.0km/h 97% 0in /  0.0mm
11:36 46.8 °F /  8.2 °C 46 °F /  7.8 °C 29.8in /  1010.0hPa Calm   6.5mph /  10.5km/h 97% 0in /  0.0mm
11:41 46.8 °F /  8.2 °C 46 °F /  7.8 °C 29.8in /  1010.0hPa NNW 4mph /  6.4km/h 6mph /  9.7km/h 97% 0in /  0.0mm
11:46 46.8 °F /  8.2 °C 46 °F /  7.8 °C 29.8in /  1010.0hPa North 7.4mph /  11.9km/h 7.4mph /  11.9km/h 97% 0in /  0.0mm
11:51 46.8 °F /  8.2 °C 46 °F /  7.8 °C 29.8in /  1010.0hPa NNW 3.4mph /  5.5km/h 7.4mph /  11.9km/h 97% 0in /  0.0mm
11:56 46.6 °F /  8.1 °C 45.9 °F /  7.7 °C 29.8in /  1010.0hPa NNE 3.1mph /  5.0km/h 6.9mph /  11.1km/h 97% 0in /  0.0mm
12:01 46.6 °F /  8.1 °C 45.9 °F /  7.7 °C 29.8in /  1010.0hPa WNW 2.9mph /  4.7km/h 5.6mph /  9.0km/h 97% 0in /  0.0mm
12:06 46.6 °F /  8.1 °C 45.9 °F /  7.7 °C 29.8in /  1010.0hPa North 2.5mph /  4.0km/h 5.6mph /  9.0km/h 97% 0in /  0.0mm
12:11 46.6 °F /  8.1 °C 45.9 °F /  7.7 °C 29.8in /  1010.0hPa NNE 3.4mph /  5.5km/h 5.4mph /  8.7km/h 97% 0in /  0.0mm
12:16 46.6 °F /  8.1 °C 45.9 °F /  7.7 °C 29.8in /  1010.0hPa NNE 3.6mph /  5.8km/h 6mph /  9.7km/h 97% 0in /  0.0mm
12:21 46.6 °F /  8.1 °C 45.9 °F /  7.7 °C 29.8in /  1010.0hPa NW 5.8mph /  9.3km/h 6mph /  9.7km/h 97% 0in /  0.0mm
12:26 46.6 °F /  8.1 °C 45.9 °F /  7.7 °C 29.8in /  1010.0hPa NNW 5.8mph /  9.3km/h 6.3mph /  10.1km/h 97% 0in /  0.0mm
12:31 46.6 °F /  8.1 °C 45.7 °F /  7.6 °C 29.8in /  1010.0hPa NNW 3.6mph /  5.8km/h 6.3mph /  10.1km/h 97% 0in /  0.0mm
12:36 46.6 °F /  8.1 °C 45.7 °F /  7.6 °C 29.8in /  1010.0hPa North 2.5mph /  4.0km/h 6.3mph /  10.1km/h 97% 0in /  0.0mm
12:41 46.6 °F /  8.1 °C 45.7 °F /  7.6 °C 29.9in /  1011.1hPa Calm   6.3mph /  10.1km/h 97% 0in /  0.0mm
12:46 46.6 °F /  8.1 °C 45.7 °F /  7.6 °C 29.9in /  1011.1hPa NNW 4.9mph /  7.9km/h 6.3mph /  10.1km/h 97% 0in /  0.0mm
12:51 46.6 °F /  8.1 °C 45.7 °F /  7.6 °C 29.9in /  1011.1hPa Calm   5.6mph /  9.0km/h 97% 0.02in /  0.5mm
12:56 46.2 °F /  7.9 °C 45.5 °F /  7.5 °C 29.9in /  1011.1hPa North 3.1mph /  5.0km/h 4.9mph /  7.9km/h 97% 0.02in /  0.5mm
13:01 46.2 °F /  7.9 °C 45.5 °F /  7.5 °C 29.9in /  1011.1hPa NNE 3.8mph /  6.1km/h 6.3mph /  10.1km/h 97% 0.02in /  0.5mm
13:06 46 °F /  7.8 °C 45.3 °F /  7.4 °C 29.9in /  1011.1hPa NNE 3.8mph /  6.1km/h 6.5mph /  10.5km/h 97% 0.02in /  0.5mm
13:12 45.9 °F /  7.7 °C 45.1 °F /  7.3 °C 29.9in /  1011.1hPa North 3.4mph /  5.5km/h 6.5mph /  10.5km/h 97% 0.02in /  0.5mm
13:17 45.9 °F /  7.7 °C 45.1 °F /  7.3 °C 29.9in /  1011.1hPa NW 3.6mph /  5.8km/h 6.5mph /  10.5km/h 97% 0.02in /  0.5mm
13:22 45.9 °F /  7.7 °C 45.1 °F /  7.3 °C 29.9in /  1011.1hPa Calm   6.5mph /  10.5km/h 97% 0.02in /  0.5mm
13:27 45.9 °F /  7.7 °C 45.1 °F /  7.3 °C 29.9in /  1011.1hPa NNW 2.9mph /  4.7km/h 5.6mph /  9.0km/h 97% 0.02in /  0.5mm
13:32 45.9 °F /  7.7 °C 45 °F /  7.2 °C 29.9in /  1011.1hPa North 4.3mph /  6.9km/h 7.4mph /  11.9km/h 97% 0.02in /  0.5mm
13:37 45.7 °F /  7.6 °C 44.8 °F /  7.1 °C 29.9in /  1012.1hPa NNW 2.7mph /  4.3km/h 7.4mph /  11.9km/h 97% 0.02in /  0.5mm
13:42 45.7 °F /  7.6 °C 44.8 °F /  7.1 °C 29.9in /  1012.1hPa North 5.4mph /  8.7km/h 7.6mph /  12.2km/h 97% 0.02in /  0.5mm
13:47 45.3 °F /  7.4 °C 44.6 °F /  7.0 °C 29.9in /  1012.1hPa North 5.4mph /  8.7km/h 8.1mph /  13.0km/h 97% 0in /  0.0mm
13:52 45.3 °F /  7.4 °C 44.6 °F /  7.0 °C 29.9in /  1011.1hPa NNE 3.8mph /  6.1km/h 8.1mph /  13.0km/h 97% 0in /  0.0mm
13:57 45.1 °F /  7.3 °C 44.4 °F /  6.9 °C 29.9in /  1011.1hPa NW 5.6mph /  9.0km/h 7.4mph /  11.9km/h 97% 0in /  0.0mm
14:02 45.1 °F /  7.3 °C 44.4 °F /  6.9 °C 29.9in /  1011.1hPa Calm   6.5mph /  10.5km/h 97% 0in /  0.0mm
14:08 45.1 °F /  7.3 °C 44.4 °F /  6.9 °C 29.9in /  1011.1hPa North 5.4mph /  8.7km/h 7.6mph /  12.2km/h 97% 0in /  0.0mm
14:13 45.1 °F /  7.3 °C 44.2 °F /  6.8 °C 29.9in /  1011.1hPa North 3.6mph /  5.8km/h 7.6mph /  12.2km/h 97% 0in /  0.0mm
14:18 45 °F /  7.2 °C 44.1 °F /  6.7 °C 29.9in /  1011.1hPa NNW 3.6mph /  5.8km/h 7.6mph /  12.2km/h 97% 0in /  0.0mm
14:23 45 °F /  7.2 °C 44.1 °F /  6.7 °C 29.9in /  1011.1hPa NNW 3.1mph /  5.0km/h 10.1mph /  16.3km/h 97% 0in /  0.0mm
14:28 44.8 °F /  7.1 °C 43.9 °F /  6.6 °C 29.9in /  1011.1hPa NW 4.3mph /  6.9km/h 10.1mph /  16.3km/h 97% 0in /  0.0mm
14:33 44.8 °F /  7.1 °C 43.9 °F /  6.6 °C 29.9in /  1011.1hPa NNW 4.3mph /  6.9km/h 8.7mph /  14.0km/h 97% 0in /  0.0mm
14:38 45 °F /  7.2 °C 44.1 °F /  6.7 °C 29.9in /  1011.1hPa WNW 2.7mph /  4.3km/h 5.6mph /  9.0km/h 97% 0in /  0.0mm
14:43 45 °F /  7.2 °C 44.1 °F /  6.7 °C 29.9in /  1011.1hPa West 2.5mph /  4.0km/h 5.6mph /  9.0km/h 97% 0in /  0.0mm
14:48 45.1 °F /  7.3 °C 44.2 °F /  6.8 °C 29.9in /  1011.1hPa Calm   3.4mph /  5.5km/h 97% 0in /  0.0mm
14:53 45.1 °F /  7.3 °C 44.8 °F /  7.1 °C 29.9in /  1011.1hPa Calm   3.4mph /  5.5km/h 98% 0in /  0.0mm
14:58 45.1 °F /  7.3 °C 44.8 °F /  7.1 °C 29.9in /  1011.1hPa Calm   3.8mph /  6.1km/h 98% 0in /  0.0mm
15:03 45.1 °F /  7.3 °C 44.8 °F /  7.1 °C 29.9in /  1011.1hPa Calm   3.8mph /  6.1km/h 98% 0in /  0.0mm
15:08 45.1 °F /  7.3 °C 44.4 °F /  6.9 °C 29.9in /  1011.1hPa Calm   3.4mph /  5.5km/h 97% 0in /  0.0mm
15:13 45.1 °F /  7.3 °C 44.2 °F /  6.8 °C 29.9in /  1011.1hPa Calm   3.4mph /  5.5km/h 97% 0in /  0.0mm
15:18 45.1 °F /  7.3 °C 44.2 °F /  6.8 °C 29.9in /  1011.1hPa WNW 2.7mph /  4.3km/h 4.3mph /  6.9km/h 97% 0in /  0.0mm
15:23 45.1 °F /  7.3 °C 44.2 °F /  6.8 °C 29.9in /  1011.1hPa North 1.1mph /  1.8km/h 4.3mph /  6.9km/h 97% 0in /  0.0mm
15:28 45.1 °F /  7.3 °C 44.2 °F /  6.8 °C 29.9in /  1011.1hPa South 2.2mph /  3.5km/h 3.8mph /  6.1km/h 97% 0in /  0.0mm
15:33 45 °F /  7.2 °C 44.1 °F /  6.7 °C 29.9in /  1011.1hPa WNW 4.3mph /  6.9km/h 7.2mph /  11.6km/h 97% 0in /  0.0mm
15:38 45 °F /  7.2 °C 44.1 °F /  6.7 °C 29.9in /  1011.1hPa WNW 3.4mph /  5.5km/h 7.2mph /  11.6km/h 97% 0in /  0.0mm
15:43 45.1 °F /  7.3 °C 44.2 °F /  6.8 °C 29.9in /  1011.1hPa Calm   4.3mph /  6.9km/h 97% 0in /  0.0mm
15:48 45.1 °F /  7.3 °C 44.4 °F /  6.9 °C 29.9in /  1011.1hPa Calm   3.4mph /  5.5km/h 97% 0in /  0.0mm
15:53 45.1 °F /  7.3 °C 44.4 °F /  6.9 °C 29.9in /  1011.1hPa Calm   3.1mph /  5.0km/h 97% 0in /  0.0mm
15:58 45.3 °F /  7.4 °C 44.6 °F /  7.0 °C 29.9in /  1011.1hPa Calm   2.7mph /  4.3km/h 97% 0in /  0.0mm
16:03 45.3 °F /  7.4 °C 44.6 °F /  7.0 °C 29.9in /  1011.1hPa WNW 3.6mph /  5.8km/h 3.6mph /  5.8km/h 97% 0in /  0.0mm
16:08 45.3 °F /  7.4 °C 44.6 °F /  7.0 °C 29.9in /  1011.1hPa Calm   3.8mph /  6.1km/h 97% 0in /  0.0mm
16:13 45.3 °F /  7.4 °C 44.6 °F /  7.0 °C 29.9in /  1011.1hPa NW 2.9mph /  4.7km/h 3.8mph /  6.1km/h 97% 0in /  0.0mm
16:18 45.3 °F /  7.4 °C 44.6 °F /  7.0 °C 29.9in /  1011.1hPa WNW 2.2mph /  3.5km/h 3.6mph /  5.8km/h 97% 0in /  0.0mm
16:23 45.3 °F /  7.4 °C 44.6 °F /  7.0 °C 29.9in /  1011.1hPa Calm   3.6mph /  5.8km/h 97% 0in /  0.0mm
16:28 45.3 °F /  7.4 °C 44.6 °F /  7.0 °C 29.9in /  1011.1hPa Calm   3.1mph /  5.0km/h 97% 0in /  0.0mm
16:33 45.3 °F /  7.4 °C 44.6 °F /  7.0 °C 29.9in /  1011.1hPa Calm   2.7mph /  4.3km/h 97% 0in /  0.0mm
16:38 45.1 °F /  7.3 °C 44.4 °F /  6.9 °C 29.9in /  1011.1hPa Calm     97% 0in /  0.0mm
16:39 45.1 °F /  7.3 °C 44.4 °F /  6.9 °C 29.9in /  1011.1hPa Calm     97% 0in /  0.0mm
16:44 45.1 °F /  7.3 °C 44.4 °F /  6.9 °C 29.9in /  1011.1hPa WNW 1.6mph /  2.6km/h 3.4mph /  5.5km/h 97% 0in /  0.0mm
16:49 45.1 °F /  7.3 °C 44.4 °F /  6.9 °C 29.9in /  1011.1hPa West 2.9mph /  4.7km/h 3.4mph /  5.5km/h 97% 0in /  0.0mm
16:54 45.1 °F /  7.3 °C 44.2 °F /  6.8 °C 29.9in /  1011.1hPa West 2.7mph /  4.3km/h 4mph /  6.4km/h 97% 0in /  0.0mm
16:59 45.1 °F /  7.3 °C 44.2 °F /  6.8 °C 29.9in /  1011.1hPa Calm   4.9mph /  7.9km/h 97% 0in /  0.0mm
17:04 45.1 °F /  7.3 °C 44.2 °F /  6.8 °C 29.9in /  1011.1hPa West 1.6mph /  2.6km/h 4.9mph /  7.9km/h 97% 0in /  0.0mm
17:12 45 °F /  7.2 °C 44.1 °F /  6.7 °C 29.9in /  1011.1hPa West 1.1mph /  1.8km/h 3.4mph /  5.5km/h 97% 0in /  0.0mm
17:17 45 °F /  7.2 °C 44.1 °F /  6.7 °C 29.9in /  1011.1hPa Calm   3.4mph /  5.5km/h 97% 0in /  0.0mm
17:18 45 °F /  7.2 °C 44.1 °F /  6.7 °C 29.9in /  1011.1hPa Calm   3.4mph /  5.5km/h 97% 0in /  0.0mm
17:20 45 °F /  7.2 °C 44.1 °F /  6.7 °C 29.9in /  1011.1hPa Calm   1.6mph /  2.6km/h 97% 0in /  0.0mm
17:22 45 °F /  7.2 °C 44.1 °F /  6.7 °C 29.9in /  1012.1hPa WNW 1.3mph /  2.1km/h 1.6mph /  2.6km/h 97% 0in /  0.0mm
17:25 44.8 °F /  7.1 °C 43.9 °F /  6.6 °C 29.9in /  1012.1hPa NNE 0.9mph /  1.4km/h 2.5mph /  4.0km/h 97% 0in /  0.0mm
17:30 44.8 °F /  7.1 °C 43.9 °F /  6.6 °C 29.9in /  1012.1hPa Calm   2.5mph /  4.0km/h 97% 0in /  0.0mm
17:36 44.8 °F /  7.1 °C 43.9 °F /  6.6 °C 29.9in /  1012.1hPa Calm   2.5mph /  4.0km/h 97% 0in /  0.0mm
17:41 44.4 °F /  6.9 °C 43.7 °F /  6.5 °C 29.9in /  1011.1hPa NW 1.6mph /  2.6km/h 3.1mph /  5.0km/h 97% 0in /  0.0mm
17:46 44.4 °F /  6.9 °C 43.7 °F /  6.5 °C 29.9in /  1011.1hPa Calm   3.1mph /  5.0km/h 97% 0in /  0.0mm
17:51 44.4 °F /  6.9 °C 43.7 °F /  6.5 °C 29.9in /  1011.1hPa NNE 2.2mph /  3.5km/h 3.6mph /  5.8km/h 97% 0in /  0.0mm
17:56 44.4 °F /  6.9 °C 43.7 °F /  6.5 °C 29.9in /  1012.1hPa North 3.6mph /  5.8km/h 3.6mph /  5.8km/h 97% 0in /  0.0mm
18:01 44.4 °F /  6.9 °C 43.7 °F /  6.5 °C 29.9in /  1012.1hPa North 4mph /  6.4km/h 5.4mph /  8.7km/h 97% 0in /  0.0mm
18:06 44.4 °F /  6.9 °C 43.7 °F /  6.5 °C 29.9in /  1012.1hPa North 6.5mph /  10.5km/h 7.8mph /  12.6km/h 97% 0in /  0.0mm
18:11 44.4 °F /  6.9 °C 43.7 °F /  6.5 °C 29.9in /  1012.1hPa WNW 2.7mph /  4.3km/h 7.8mph /  12.6km/h 97% 0in /  0.0mm
18:16 44.2 °F /  6.8 °C 43.5 °F /  6.4 °C 29.9in /  1012.1hPa NNE 3.4mph /  5.5km/h 7.2mph /  11.6km/h 97% 0in /  0.0mm
18:21 44.2 °F /  6.8 °C 43.5 °F /  6.4 °C 29.9in /  1012.1hPa North 3.8mph /  6.1km/h 6.5mph /  10.5km/h 97% 0in /  0.0mm
18:26 44.2 °F /  6.8 °C 43.5 °F /  6.4 °C 29.9in /  1012.1hPa North 2.7mph /  4.3km/h 6.3mph /  10.1km/h 97% 0in /  0.0mm
18:31 44.2 °F /  6.8 °C 43.5 °F /  6.4 °C 29.9in /  1012.1hPa North 3.1mph /  5.0km/h 5.4mph /  8.7km/h 97% 0in /  0.0mm
18:36 44.2 °F /  6.8 °C 43.5 °F /  6.4 °C 29.9in /  1012.1hPa NNE 2mph /  3.2km/h 5.6mph /  9.0km/h 97% 0in /  0.0mm
18:41 44.2 °F /  6.8 °C 43.3 °F /  6.3 °C 29.9in /  1013.1hPa Calm   5.6mph /  9.0km/h 97% 0in /  0.0mm
18:46 44.2 °F /  6.8 °C 43.3 °F /  6.3 °C 29.9in /  1013.1hPa Calm   3.4mph /  5.5km/h 97% 0in /  0.0mm
18:51 44.1 °F /  6.7 °C 43.2 °F /  6.2 °C 29.9in /  1013.1hPa North 2.5mph /  4.0km/h 3.4mph /  5.5km/h 97% 0in /  0.0mm
18:56 44.1 °F /  6.7 °C 43.2 °F /  6.2 °C 29.9in /  1013.1hPa North 1.3mph /  2.1km/h 3.6mph /  5.8km/h 97% 0in /  0.0mm
19:02 44.1 °F /  6.7 °C 43.2 °F /  6.2 °C 29.9in /  1013.1hPa Calm   3.6mph /  5.8km/h 97% 0in /  0.0mm
19:07 44.1 °F /  6.7 °C 43.2 °F /  6.2 °C 29.9in /  1013.1hPa Calm   2.7mph /  4.3km/h 97% 0in /  0.0mm
19:12 44.1 °F /  6.7 °C 43.2 °F /  6.2 °C 29.9in /  1013.1hPa Calm   2.7mph /  4.3km/h 97% 0in /  0.0mm
19:17 44.1 °F /  6.7 °C 43.2 °F /  6.2 °C 29.9in /  1013.1hPa Calm   2.5mph /  4.0km/h 97% 0in /  0.0mm
19:22 43.9 °F /  6.6 °C 43 °F /  6.1 °C 29.9in /  1012.1hPa Calm     97% 0in /  0.0mm
19:27 43.9 °F /  6.6 °C 43 °F /  6.1 °C 29.9in /  1012.1hPa Calm     97% 0in /  0.0mm
19:32 43.9 °F /  6.6 °C 43 °F /  6.1 °C 29.9in /  1012.1hPa NNE 2.5mph /  4.0km/h 2.5mph /  4.0km/h 97% 0in /  0.0mm
19:37 43.9 °F /  6.6 °C 43 °F /  6.1 °C 29.9in /  1013.1hPa Calm   2.5mph /  4.0km/h 97% 0in /  0.0mm
19:42 43.9 °F /  6.6 °C 43 °F /  6.1 °C 29.9in /  1013.1hPa Calm   2.2mph /  3.5km/h 97% 0in /  0.0mm
19:47 43.9 °F /  6.6 °C 43 °F /  6.1 °C 29.9in /  1013.1hPa Calm   2.7mph /  4.3km/h 97% 0in /  0.0mm
19:52 43.9 °F /  6.6 °C 43 °F /  6.1 °C 29.9in /  1013.1hPa Calm   2.7mph /  4.3km/h 97% 0in /  0.0mm
19:57 43.9 °F /  6.6 °C 43 °F /  6.1 °C 29.9in /  1013.1hPa Calm   2.2mph /  3.5km/h 97% 0in /  0.0mm
20:02 43.9 °F /  6.6 °C 43 °F /  6.1 °C 29.9in /  1013.1hPa Calm   2.2mph /  3.5km/h 97% 0in /  0.0mm
20:12 43.5 °F /  6.4 °C 42.8 °F /  6.0 °C 29.9in /  1013.1hPa Calm     97% 0in /  0.0mm
20:17 43.5 °F /  6.4 °C 42.6 °F /  5.9 °C 29.9in /  1013.1hPa Calm     97% 0in /  0.0mm
20:22 43.5 °F /  6.4 °C 42.6 °F /  5.9 °C 29.9in /  1013.1hPa Calm     97% 0in /  0.0mm
20:27 43.5 °F /  6.4 °C 42.6 °F /  5.9 °C 29.9in /  1013.1hPa Calm   2.5mph /  4.0km/h 97% 0in /  0.0mm
20:32 43.5 °F /  6.4 °C 42.6 °F /  5.9 °C 29.9in /  1013.1hPa Calm   2.5mph /  4.0km/h 97% 0in /  0.0mm
20:37 43.5 °F /  6.4 °C 42.6 °F /  5.9 °C 29.9in /  1013.1hPa Calm     97% 0in /  0.0mm
20:42 43.3 °F /  6.3 °C 42.4 °F /  5.8 °C 29.9in /  1013.1hPa Calm     97% 0in /  0.0mm
20:47 43.3 °F /  6.3 °C 42.4 °F /  5.8 °C 29.9in /  1013.1hPa Calm     97% 0in /  0.0mm
20:52 43.3 °F /  6.3 °C 42.4 °F /  5.8 °C 29.9in /  1013.1hPa Calm     97% 0in /  0.0mm
20:57 43.3 °F /  6.3 °C 42.4 °F /  5.8 °C 29.9in /  1013.1hPa Calm     97% 0in /  0.0mm
21:02 43.3 °F /  6.3 °C 42.4 °F /  5.8 °C 29.9in /  1013.1hPa Calm   2.2mph /  3.5km/h 97% 0in /  0.0mm
21:07 43.2 °F /  6.2 °C 42.3 °F /  5.7 °C 29.9in /  1013.1hPa ENE 1.1mph /  1.8km/h 3.4mph /  5.5km/h 97% 0in /  0.0mm
21:12 43.2 °F /  6.2 °C 42.3 °F /  5.7 °C 29.9in /  1013.1hPa Calm   3.4mph /  5.5km/h 97% 0in /  0.0mm
21:17 43.2 °F /  6.2 °C 42.3 °F /  5.7 °C 29.9in /  1013.1hPa Calm   2.5mph /  4.0km/h 97% 0in /  0.0mm
21:22 43.2 °F /  6.2 °C 42.3 °F /  5.7 °C 29.9in /  1013.1hPa Calm   3.1mph /  5.0km/h 97% 0in /  0.0mm
21:27 43.2 °F /  6.2 °C 42.3 °F /  5.7 °C 29.9in /  1013.1hPa Calm   3.1mph /  5.0km/h 97% 0in /  0.0mm
21:32 43.2 °F /  6.2 °C 42.3 °F /  5.7 °C 29.9in /  1013.1hPa Calm   2.5mph /  4.0km/h 97% 0in /  0.0mm
21:37 43.2 °F /  6.2 °C 42.3 °F /  5.7 °C 29.9in /  1013.1hPa Calm     97% 0in /  0.0mm
21:42 43.2 °F /  6.2 °C 42.3 °F /  5.7 °C 29.9in /  1013.1hPa Calm   2.7mph /  4.3km/h 97% 0in /  0.0mm
21:47 43 °F /  6.1 °C 42.1 °F /  5.6 °C 29.9in /  1013.1hPa Calm   2.7mph /  4.3km/h 97% 0in /  0.0mm
21:52 43 °F /  6.1 °C 42.1 °F /  5.6 °C 29.9in /  1013.1hPa Calm     97% 0in /  0.0mm
21:57 43 °F /  6.1 °C 42.1 °F /  5.6 °C 29.9in /  1013.1hPa Calm     97% 0in /  0.0mm
22:02 43 °F /  6.1 °C 42.1 °F /  5.6 °C 29.9in /  1013.1hPa ENE 4.3mph /  6.9km/h 4.3mph /  6.9km/h 97% 0in /  0.0mm
22:07 43 °F /  6.1 °C 42.1 °F /  5.6 °C 29.9in /  1013.1hPa Calm   4.3mph /  6.9km/h 97% 0in /  0.0mm
22:12 42.8 °F /  6.0 °C 42.1 °F /  5.6 °C 29.9in /  1013.1hPa ENE 2.7mph /  4.3km/h 4.3mph /  6.9km/h 97% 0in /  0.0mm
22:17 42.8 °F /  6.0 °C 42.1 °F /  5.6 °C 29.9in /  1013.1hPa ENE 2.9mph /  4.7km/h 3.8mph /  6.1km/h 97% 0in /  0.0mm
22:22 42.8 °F /  6.0 °C 42.1 °F /  5.6 °C 29.9in /  1013.1hPa East 1.6mph /  2.6km/h 3.8mph /  6.1km/h 97% 0in /  0.0mm
22:27 42.8 °F /  6.0 °C 42.1 °F /  5.6 °C 29.9in /  1013.1hPa East 2.9mph /  4.7km/h 3.8mph /  6.1km/h 97% 0in /  0.0mm
22:32 42.8 °F /  6.0 °C 42.1 °F /  5.6 °C 29.9in /  1013.1hPa Calm   3.1mph /  5.0km/h 97% 0in /  0.0mm
22:37 42.8 °F /  6.0 °C 42.1 °F /  5.6 °C 29.9in /  1013.1hPa Calm   2.9mph /  4.7km/h 97% 0in /  0.0mm
22:42 42.6 °F /  5.9 °C 41.7 °F /  5.4 °C 29.9in /  1013.1hPa Calm   3.4mph /  5.5km/h 97% 0in /  0.0mm
22:47 42.6 °F /  5.9 °C 41.7 °F /  5.4 °C 29.9in /  1013.1hPa Calm   3.4mph /  5.5km/h 97% 0in /  0.0mm
22:52 42.6 °F /  5.9 °C 41.7 °F /  5.4 °C 29.9in /  1013.1hPa Calm   2.2mph /  3.5km/h 97% 0in /  0.0mm
22:57 42.6 °F /  5.9 °C 41.7 °F /  5.4 °C 29.9in /  1013.1hPa Calm   2.2mph /  3.5km/h 97% 0in /  0.0mm
23:02 42.6 °F /  5.9 °C 41.7 °F /  5.4 °C 29.9in /  1013.1hPa Calm     97% 0in /  0.0mm
23:07 42.4 °F /  5.8 °C 41.9 °F /  5.5 °C 29.9in /  1013.1hPa Calm   1.1mph /  1.8km/h 98% 0in /  0.0mm
23:12 42.4 °F /  5.8 °C 41.9 °F /  5.5 °C 29.9in /  1013.1hPa Calm   1.1mph /  1.8km/h 98% 0in /  0.0mm
23:17 42.4 °F /  5.8 °C 41.9 °F /  5.5 °C 29.9in /  1013.1hPa Calm     98% 0in /  0.0mm
23:22 42.3 °F /  5.7 °C 41.7 °F /  5.4 °C 29.9in /  1013.1hPa Calm     98% 0in /  0.0mm
23:27 42.3 °F /  5.7 °C 41.7 °F /  5.4 °C 29.9in /  1013.1hPa Calm   1.3mph /  2.1km/h 98% 0in /  0.0mm
23:32 42.3 °F /  5.7 °C 41.7 °F /  5.4 °C 29.9in /  1013.1hPa Calm   1.3mph /  2.1km/h 98% 0in /  0.0mm
23:37 42.3 °F /  5.7 °C 41.7 °F /  5.4 °C 29.9in /  1013.1hPa Calm   1.3mph /  2.1km/h 98% 0in /  0.0mm
23:42 42.3 °F /  5.7 °C 41.7 °F /  5.4 °C 29.9in /  1013.1hPa Calm     98% 0in /  0.0mm
23:47 42.3 °F /  5.7 °C 41.7 °F /  5.4 °C 29.9in /  1013.1hPa Calm     98% 0in /  0.0mm
23:52 42.3 °F /  5.7 °C 41.7 °F /  5.4 °C 29.9in /  1013.1hPa ENE 3.6mph /  5.8km/h 4.9mph /  7.9km/h 98% 0in /  0.0mm
23:57 42.3 °F /  5.7 °C 41.7 °F /  5.4 °C 29.9in /  1013.1hPa ENE 2.9mph /  4.7km/h 4.9mph /  7.9km/h 98% 0in /  0.0mm
Données Historique de Météo Turbie

Mise a jour : 24/05/2018 23:28:14
Généré par Cumulus 1.9.4 (1099)